sensor_id;sensor_type;location;lat;lon;timestamp;P1;durP1;ratioP1;P2;durP2;ratioP2
73632;SDS011;61927;50.080;14.418;2023-06-22T00:02:16;11.98;;;3.90;;
73632;SDS011;61927;50.080;14.418;2023-06-22T00:04:42;8.05;;;3.42;;
73632;SDS011;61927;50.080;14.418;2023-06-22T00:07:08;16.95;;;3.97;;
73632;SDS011;61927;50.080;14.418;2023-06-22T00:09:33;10.35;;;4.20;;
73632;SDS011;61927;50.080;14.418;2023-06-22T00:11:59;10.25;;;3.80;;
73632;SDS011;61927;50.080;14.418;2023-06-22T00:14:25;7.38;;;3.80;;
73632;SDS011;61927;50.080;14.418;2023-06-22T00:16:50;9.23;;;4.43;;
73632;SDS011;61927;50.080;14.418;2023-06-22T00:19:20;10.00;;;4.30;;
73632;SDS011;61927;50.080;14.418;2023-06-22T00:21:47;13.52;;;4.53;;
73632;SDS011;61927;50.080;14.418;2023-06-22T00:24:20;7.35;;;4.03;;
73632;SDS011;61927;50.080;14.418;2023-06-22T00:26:47;11.25;;;3.92;;
73632;SDS011;61927;50.080;14.418;2023-06-22T00:29:13;6.32;;;3.72;;
73632;SDS011;61927;50.080;14.418;2023-06-22T00:31:40;6.90;;;4.13;;
73632;SDS011;61927;50.080;14.418;2023-06-22T00:34:05;11.63;;;4.00;;
73632;SDS011;61927;50.080;14.418;2023-06-22T00:36:32;11.63;;;3.80;;
73632;SDS011;61927;50.080;14.418;2023-06-22T00:38:57;9.57;;;4.10;;
73632;SDS011;61927;50.080;14.418;2023-06-22T00:41:23;7.40;;;4.10;;
73632;SDS011;61927;50.080;14.418;2023-06-22T00:43:48;10.50;;;4.28;;
73632;SDS011;61927;50.080;14.418;2023-06-22T00:46:14;9.07;;;4.57;;
73632;SDS011;61927;50.080;14.418;2023-06-22T00:48:40;11.48;;;4.25;;
73632;SDS011;61927;50.080;14.418;2023-06-22T00:51:09;12.07;;;4.50;;
73632;SDS011;61927;50.080;14.418;2023-06-22T00:53:35;6.35;;;4.25;;
73632;SDS011;61927;50.080;14.418;2023-06-22T00:56:02;8.52;;;4.07;;
73632;SDS011;61927;50.080;14.418;2023-06-22T00:58:28;10.68;;;4.30;;
73632;SDS011;61927;50.080;14.418;2023-06-22T01:00:55;9.18;;;3.92;;
73632;SDS011;61927;50.080;14.418;2023-06-22T01:03:20;5.82;;;3.58;;
73632;SDS011;61927;50.080;14.418;2023-06-22T01:05:46;9.10;;;3.58;;
73632;SDS011;61927;50.080;14.418;2023-06-22T01:08:23;8.90;;;4.38;;
73632;SDS011;61927;50.080;14.418;2023-06-22T01:11:07;13.07;;;4.10;;
73632;SDS011;61927;50.080;14.418;2023-06-22T01:13:41;7.93;;;4.45;;
73632;SDS011;61927;50.080;14.418;2023-06-22T01:18:46;16.90;;;4.00;;
73632;SDS011;61927;50.080;14.418;2023-06-22T01:21:17;6.60;;;3.60;;
73632;SDS011;61927;50.080;14.418;2023-06-22T01:23:51;5.40;;;3.60;;
73632;SDS011;61927;50.080;14.418;2023-06-22T01:28:55;9.77;;;4.05;;
73632;SDS011;61927;50.080;14.418;2023-06-22T01:31:25;8.80;;;4.75;;
73632;SDS011;61927;50.080;14.418;2023-06-22T01:33:59;13.10;;;4.13;;
73632;SDS011;61927;50.080;14.418;2023-06-22T01:36:28;5.65;;;3.70;;
73632;SDS011;61927;50.080;14.418;2023-06-22T01:38:55;6.30;;;4.25;;
73632;SDS011;61927;50.080;14.418;2023-06-22T01:41:24;7.82;;;3.90;;
73632;SDS011;61927;50.080;14.418;2023-06-22T01:43:51;12.25;;;4.22;;
73632;SDS011;61927;50.080;14.418;2023-06-22T01:46:19;7.20;;;4.10;;
73632;SDS011;61927;50.080;14.418;2023-06-22T01:48:46;6.85;;;4.22;;
73632;SDS011;61927;50.080;14.418;2023-06-22T01:51:13;9.90;;;3.85;;
73632;SDS011;61927;50.080;14.418;2023-06-22T01:53:39;14.35;;;4.45;;
73632;SDS011;61927;50.080;14.418;2023-06-22T01:56:05;9.90;;;4.28;;
73632;SDS011;61927;50.080;14.418;2023-06-22T01:58:31;7.35;;;4.25;;
73632;SDS011;61927;50.080;14.418;2023-06-22T02:06:38;8.43;;;3.95;;
73632;SDS011;61927;50.080;14.418;2023-06-22T02:09:11;9.35;;;4.10;;
73632;SDS011;61927;50.080;14.418;2023-06-22T02:11:41;14.23;;;4.50;;
73632;SDS011;61927;50.080;14.418;2023-06-22T02:14:09;8.85;;;4.63;;
73632;SDS011;61927;50.080;14.418;2023-06-22T02:16:36;9.95;;;4.20;;
73632;SDS011;61927;50.080;14.418;2023-06-22T02:19:03;10.95;;;4.88;;
73632;SDS011;61927;50.080;14.418;2023-06-22T02:21:29;10.73;;;3.80;;
73632;SDS011;61927;50.080;14.418;2023-06-22T02:23:56;8.23;;;4.22;;
73632;SDS011;61927;50.080;14.418;2023-06-22T02:26:22;6.18;;;4.03;;
73632;SDS011;61927;50.080;14.418;2023-06-22T02:28:48;6.00;;;3.92;;
73632;SDS011;61927;50.080;14.418;2023-06-22T02:31:14;6.93;;;3.75;;
73632;SDS011;61927;50.080;14.418;2023-06-22T02:33:41;7.35;;;3.95;;
73632;SDS011;61927;50.080;14.418;2023-06-22T02:36:07;9.77;;;4.03;;
73632;SDS011;61927;50.080;14.418;2023-06-22T02:38:34;12.00;;;3.63;;
73632;SDS011;61927;50.080;14.418;2023-06-22T02:41:02;9.77;;;4.25;;
73632;SDS011;61927;50.080;14.418;2023-06-22T02:43:27;8.70;;;3.70;;
73632;SDS011;61927;50.080;14.418;2023-06-22T02:45:53;6.90;;;3.90;;
73632;SDS011;61927;50.080;14.418;2023-06-22T02:48:19;10.07;;;4.30;;
73632;SDS011;61927;50.080;14.418;2023-06-22T02:50:45;12.90;;;4.68;;
73632;SDS011;61927;50.080;14.418;2023-06-22T02:53:10;5.15;;;3.85;;
73632;SDS011;61927;50.080;14.418;2023-06-22T02:55:36;5.78;;;4.07;;
73632;SDS011;61927;50.080;14.418;2023-06-22T02:58:01;10.55;;;4.57;;
73632;SDS011;61927;50.080;14.418;2023-06-22T03:00:30;14.70;;;4.70;;
73632;SDS011;61927;50.080;14.418;2023-06-22T03:02:57;12.27;;;4.20;;
73632;SDS011;61927;50.080;14.418;2023-06-22T03:05:23;21.95;;;4.35;;
73632;SDS011;61927;50.080;14.418;2023-06-22T03:07:49;8.75;;;4.57;;
73632;SDS011;61927;50.080;14.418;2023-06-22T03:10:15;6.15;;;4.20;;
73632;SDS011;61927;50.080;14.418;2023-06-22T03:12:41;7.32;;;3.97;;
73632;SDS011;61927;50.080;14.418;2023-06-22T03:15:09;6.28;;;3.78;;
73632;SDS011;61927;50.080;14.418;2023-06-22T03:17:37;9.23;;;3.90;;
73632;SDS011;61927;50.080;14.418;2023-06-22T03:20:07;12.25;;;4.60;;
73632;SDS011;61927;50.080;14.418;2023-06-22T03:22:37;7.70;;;4.45;;
73632;SDS011;61927;50.080;14.418;2023-06-22T03:25:04;7.93;;;4.05;;
73632;SDS011;61927;50.080;14.418;2023-06-22T03:27:36;8.50;;;4.03;;
73632;SDS011;61927;50.080;14.418;2023-06-22T03:30:02;8.82;;;4.25;;
73632;SDS011;61927;50.080;14.418;2023-06-22T03:32:28;8.50;;;4.65;;
73632;SDS011;61927;50.080;14.418;2023-06-22T03:34:53;8.60;;;4.25;;
73632;SDS011;61927;50.080;14.418;2023-06-22T03:37:19;10.10;;;4.20;;
73632;SDS011;61927;50.080;14.418;2023-06-22T03:39:44;10.88;;;4.70;;
73632;SDS011;61927;50.080;14.418;2023-06-22T03:42:10;8.50;;;4.40;;
73632;SDS011;61927;50.080;14.418;2023-06-22T03:44:36;11.18;;;5.22;;
73632;SDS011;61927;50.080;14.418;2023-06-22T03:47:02;10.60;;;4.78;;
73632;SDS011;61927;50.080;14.418;2023-06-22T03:49:29;11.88;;;4.65;;
73632;SDS011;61927;50.080;14.418;2023-06-22T03:51:55;11.45;;;5.05;;
73632;SDS011;61927;50.080;14.418;2023-06-22T03:54:20;10.18;;;5.13;;
73632;SDS011;61927;50.080;14.418;2023-06-22T03:56:46;7.72;;;4.72;;
73632;SDS011;61927;50.080;14.418;2023-06-22T03:59:11;8.25;;;4.80;;
73632;SDS011;61927;50.080;14.418;2023-06-22T04:01:37;16.50;;;6.30;;
73632;SDS011;61927;50.080;14.418;2023-06-22T04:04:03;17.50;;;5.45;;
73632;SDS011;61927;50.080;14.418;2023-06-22T04:06:28;9.80;;;5.28;;
73632;SDS011;61927;50.080;14.418;2023-06-22T04:08:54;11.95;;;5.13;;
73632;SDS011;61927;50.080;14.418;2023-06-22T04:11:19;9.45;;;5.03;;
73632;SDS011;61927;50.080;14.418;2023-06-22T04:13:45;11.63;;;5.72;;
73632;SDS011;61927;50.080;14.418;2023-06-22T04:16:11;10.27;;;5.85;;
73632;SDS011;61927;50.080;14.418;2023-06-22T04:18:36;18.40;;;5.80;;
73632;SDS011;61927;50.080;14.418;2023-06-22T04:21:02;12.25;;;6.25;;
73632;SDS011;61927;50.080;14.418;2023-06-22T04:23:28;13.52;;;5.15;;
73632;SDS011;61927;50.080;14.418;2023-06-22T04:25:54;10.70;;;5.10;;
73632;SDS011;61927;50.080;14.418;2023-06-22T04:28:21;8.93;;;4.88;;
73632;SDS011;61927;50.080;14.418;2023-06-22T04:30:47;13.18;;;5.70;;
73632;SDS011;61927;50.080;14.418;2023-06-22T04:33:14;11.25;;;5.53;;
73632;SDS011;61927;50.080;14.418;2023-06-22T04:35:40;14.30;;;4.68;;
73632;SDS011;61927;50.080;14.418;2023-06-22T04:38:09;9.88;;;4.30;;
73632;SDS011;61927;50.080;14.418;2023-06-22T04:40:34;8.63;;;4.50;;
73632;SDS011;61927;50.080;14.418;2023-06-22T04:43:00;9.63;;;4.38;;
73632;SDS011;61927;50.080;14.418;2023-06-22T04:45:28;10.88;;;5.90;;
73632;SDS011;61927;50.080;14.418;2023-06-22T04:47:54;16.55;;;7.68;;
73632;SDS011;61927;50.080;14.418;2023-06-22T04:50:20;16.30;;;5.32;;
73632;SDS011;61927;50.080;14.418;2023-06-22T04:52:49;9.80;;;5.90;;
73632;SDS011;61927;50.080;14.418;2023-06-22T04:55:15;12.48;;;7.05;;
73632;SDS011;61927;50.080;14.418;2023-06-22T04:57:45;5.50;;;4.68;;
73632;SDS011;61927;50.080;14.418;2023-06-22T05:00:17;11.48;;;5.15;;
73632;SDS011;61927;50.080;14.418;2023-06-22T05:02:45;12.50;;;4.55;;
73632;SDS011;61927;50.080;14.418;2023-06-22T05:05:12;8.48;;;4.97;;
73632;SDS011;61927;50.080;14.418;2023-06-22T05:07:49;6.38;;;4.93;;
73632;SDS011;61927;50.080;14.418;2023-06-22T05:10:18;10.30;;;4.97;;
73632;SDS011;61927;50.080;14.418;2023-06-22T05:12:44;13.30;;;4.80;;
73632;SDS011;61927;50.080;14.418;2023-06-22T05:15:10;12.95;;;5.45;;
73632;SDS011;61927;50.080;14.418;2023-06-22T05:17:36;22.35;;;4.55;;
73632;SDS011;61927;50.080;14.418;2023-06-22T05:20:11;10.55;;;4.72;;
73632;SDS011;61927;50.080;14.418;2023-06-22T05:22:38;5.57;;;4.90;;
73632;SDS011;61927;50.080;14.418;2023-06-22T05:25:08;11.57;;;5.18;;
73632;SDS011;61927;50.080;14.418;2023-06-22T05:27:35;13.10;;;6.38;;
73632;SDS011;61927;50.080;14.418;2023-06-22T05:30:05;15.00;;;5.22;;
73632;SDS011;61927;50.080;14.418;2023-06-22T05:32:32;10.25;;;5.55;;
73632;SDS011;61927;50.080;14.418;2023-06-22T05:34:58;8.52;;;5.32;;
73632;SDS011;61927;50.080;14.418;2023-06-22T05:37:24;13.70;;;5.70;;
73632;SDS011;61927;50.080;14.418;2023-06-22T05:39:50;15.73;;;6.13;;
73632;SDS011;61927;50.080;14.418;2023-06-22T05:42:15;16.63;;;7.03;;
73632;SDS011;61927;50.080;14.418;2023-06-22T05:44:41;18.60;;;6.18;;
73632;SDS011;61927;50.080;14.418;2023-06-22T05:47:06;8.43;;;6.03;;
73632;SDS011;61927;50.080;14.418;2023-06-22T05:49:32;10.43;;;6.88;;
73632;SDS011;61927;50.080;14.418;2023-06-22T05:51:58;10.07;;;6.57;;
73632;SDS011;61927;50.080;14.418;2023-06-22T05:54:24;10.50;;;6.60;;
73632;SDS011;61927;50.080;14.418;2023-06-22T05:56:50;12.93;;;7.30;;
73632;SDS011;61927;50.080;14.418;2023-06-22T05:59:17;16.10;;;7.03;;
73632;SDS011;61927;50.080;14.418;2023-06-22T06:01:42;14.00;;;7.63;;
73632;SDS011;61927;50.080;14.418;2023-06-22T06:04:08;14.50;;;7.63;;
73632;SDS011;61927;50.080;14.418;2023-06-22T06:06:34;13.43;;;7.20;;
73632;SDS011;61927;50.080;14.418;2023-06-22T06:09:05;16.52;;;7.55;;
73632;SDS011;61927;50.080;14.418;2023-06-22T06:11:31;19.67;;;7.85;;
73632;SDS011;61927;50.080;14.418;2023-06-22T06:13:56;25.38;;;7.78;;
73632;SDS011;61927;50.080;14.418;2023-06-22T06:16:24;15.00;;;7.43;;
73632;SDS011;61927;50.080;14.418;2023-06-22T06:18:50;18.48;;;7.93;;
73632;SDS011;61927;50.080;14.418;2023-06-22T06:21:16;18.25;;;7.95;;
73632;SDS011;61927;50.080;14.418;2023-06-22T06:23:41;20.45;;;8.10;;
73632;SDS011;61927;50.080;14.418;2023-06-22T06:26:08;14.52;;;7.72;;
73632;SDS011;61927;50.080;14.418;2023-06-22T06:28:34;16.60;;;8.60;;
73632;SDS011;61927;50.080;14.418;2023-06-22T06:31:00;25.98;;;7.95;;
73632;SDS011;61927;50.080;14.418;2023-06-22T06:33:26;13.27;;;7.70;;
73632;SDS011;61927;50.080;14.418;2023-06-22T06:35:52;17.98;;;8.52;;
73632;SDS011;61927;50.080;14.418;2023-06-22T06:38:18;19.17;;;8.50;;
73632;SDS011;61927;50.080;14.418;2023-06-22T06:40:44;16.45;;;8.75;;
73632;SDS011;61927;50.080;14.418;2023-06-22T06:43:10;17.02;;;8.73;;
73632;SDS011;61927;50.080;14.418;2023-06-22T06:45:36;21.73;;;8.68;;
73632;SDS011;61927;50.080;14.418;2023-06-22T06:48:01;25.60;;;9.57;;
73632;SDS011;61927;50.080;14.418;2023-06-22T06:50:27;20.92;;;8.40;;
73632;SDS011;61927;50.080;14.418;2023-06-22T06:52:53;17.25;;;9.25;;
73632;SDS011;61927;50.080;14.418;2023-06-22T06:55:19;14.10;;;8.90;;
73632;SDS011;61927;50.080;14.418;2023-06-22T06:57:45;16.02;;;9.13;;
73632;SDS011;61927;50.080;14.418;2023-06-22T07:00:13;18.95;;;8.48;;
73632;SDS011;61927;50.080;14.418;2023-06-22T07:02:43;20.00;;;9.80;;
73632;SDS011;61927;50.080;14.418;2023-06-22T07:05:11;15.48;;;8.82;;
73632;SDS011;61927;50.080;14.418;2023-06-22T07:07:37;18.08;;;8.38;;
73632;SDS011;61927;50.080;14.418;2023-06-22T07:10:03;36.22;;;10.48;;
73632;SDS011;61927;50.080;14.418;2023-06-22T07:12:30;20.45;;;9.23;;
73632;SDS011;61927;50.080;14.418;2023-06-22T07:15:01;29.45;;;8.15;;
73632;SDS011;61927;50.080;14.418;2023-06-22T07:17:28;14.93;;;8.57;;
73632;SDS011;61927;50.080;14.418;2023-06-22T07:19:55;12.88;;;7.97;;
73632;SDS011;61927;50.080;14.418;2023-06-22T07:22:20;19.48;;;7.65;;
73632;SDS011;61927;50.080;14.418;2023-06-22T07:24:46;21.50;;;7.72;;
73632;SDS011;61927;50.080;14.418;2023-06-22T07:27:11;19.27;;;7.43;;
73632;SDS011;61927;50.080;14.418;2023-06-22T07:29:37;28.08;;;15.13;;
73632;SDS011;61927;50.080;14.418;2023-06-22T07:32:05;18.83;;;7.30;;
73632;SDS011;61927;50.080;14.418;2023-06-22T07:34:31;16.58;;;7.45;;
73632;SDS011;61927;50.080;14.418;2023-06-22T07:36:58;13.57;;;6.80;;
73632;SDS011;61927;50.080;14.418;2023-06-22T07:39:24;16.42;;;7.00;;
73632;SDS011;61927;50.080;14.418;2023-06-22T07:41:51;24.60;;;6.25;;
73632;SDS011;61927;50.080;14.418;2023-06-22T07:44:18;28.85;;;7.10;;
73632;SDS011;61927;50.080;14.418;2023-06-22T07:46:43;18.48;;;6.20;;
73632;SDS011;61927;50.080;14.418;2023-06-22T07:49:09;20.17;;;6.30;;
73632;SDS011;61927;50.080;14.418;2023-06-22T07:51:36;27.42;;;7.32;;
73632;SDS011;61927;50.080;14.418;2023-06-22T07:54:02;18.70;;;7.57;;
73632;SDS011;61927;50.080;14.418;2023-06-22T07:56:29;12.88;;;7.85;;
73632;SDS011;61927;50.080;14.418;2023-06-22T07:58:55;19.65;;;7.18;;
73632;SDS011;61927;50.080;14.418;2023-06-22T08:01:23;15.52;;;7.50;;
73632;SDS011;61927;50.080;14.418;2023-06-22T08:03:52;19.67;;;7.30;;
73632;SDS011;61927;50.080;14.418;2023-06-22T08:06:17;16.13;;;7.25;;
73632;SDS011;61927;50.080;14.418;2023-06-22T08:08:43;22.83;;;6.95;;
73632;SDS011;61927;50.080;14.418;2023-06-22T08:11:13;13.43;;;6.38;;
73632;SDS011;61927;50.080;14.418;2023-06-22T08:13:39;21.25;;;7.15;;
73632;SDS011;61927;50.080;14.418;2023-06-22T08:16:04;21.42;;;7.10;;
73632;SDS011;61927;50.080;14.418;2023-06-22T08:18:31;11.88;;;6.25;;
73632;SDS011;61927;50.080;14.418;2023-06-22T08:20:57;10.82;;;6.25;;
73632;SDS011;61927;50.080;14.418;2023-06-22T08:23:23;23.55;;;6.45;;
73632;SDS011;61927;50.080;14.418;2023-06-22T08:25:48;18.60;;;7.28;;
73632;SDS011;61927;50.080;14.418;2023-06-22T08:28:16;17.38;;;6.70;;
73632;SDS011;61927;50.080;14.418;2023-06-22T08:30:41;28.40;;;7.68;;
73632;SDS011;61927;50.080;14.418;2023-06-22T08:33:07;13.32;;;6.07;;
73632;SDS011;61927;50.080;14.418;2023-06-22T08:35:32;10.77;;;7.18;;
73632;SDS011;61927;50.080;14.418;2023-06-22T08:37:58;22.95;;;7.43;;
73632;SDS011;61927;50.080;14.418;2023-06-22T08:40:25;16.75;;;6.43;;
73632;SDS011;61927;50.080;14.418;2023-06-22T08:42:51;20.92;;;6.00;;
73632;SDS011;61927;50.080;14.418;2023-06-22T08:45:16;12.18;;;5.70;;
73632;SDS011;61927;50.080;14.418;2023-06-22T08:47:42;12.88;;;5.75;;
73632;SDS011;61927;50.080;14.418;2023-06-22T08:50:08;15.90;;;6.20;;
73632;SDS011;61927;50.080;14.418;2023-06-22T08:52:37;20.85;;;5.88;;
73632;SDS011;61927;50.080;14.418;2023-06-22T08:55:06;17.40;;;6.65;;
73632;SDS011;61927;50.080;14.418;2023-06-22T08:57:33;22.85;;;7.45;;
73632;SDS011;61927;50.080;14.418;2023-06-22T08:59:58;16.77;;;6.72;;
73632;SDS011;61927;50.080;14.418;2023-06-22T09:02:25;13.77;;;5.75;;
73632;SDS011;61927;50.080;14.418;2023-06-22T09:04:51;6.70;;;5.28;;
73632;SDS011;61927;50.080;14.418;2023-06-22T09:07:24;9.70;;;5.07;;
73632;SDS011;61927;50.080;14.418;2023-06-22T09:09:50;10.55;;;5.38;;
73632;SDS011;61927;50.080;14.418;2023-06-22T09:12:16;6.90;;;5.32;;
73632;SDS011;61927;50.080;14.418;2023-06-22T09:14:42;14.95;;;5.90;;
73632;SDS011;61927;50.080;14.418;2023-06-22T09:17:08;16.55;;;6.78;;
73632;SDS011;61927;50.080;14.418;2023-06-22T09:19:33;14.80;;;6.25;;
73632;SDS011;61927;50.080;14.418;2023-06-22T09:21:59;15.15;;;6.30;;
73632;SDS011;61927;50.080;14.418;2023-06-22T09:24:25;10.77;;;6.55;;
73632;SDS011;61927;50.080;14.418;2023-06-22T09:26:51;16.00;;;6.13;;
73632;SDS011;61927;50.080;14.418;2023-06-22T09:29:16;13.52;;;6.72;;
73632;SDS011;61927;50.080;14.418;2023-06-22T09:31:42;24.80;;;6.10;;
73632;SDS011;61927;50.080;14.418;2023-06-22T09:34:09;8.43;;;5.60;;
73632;SDS011;61927;50.080;14.418;2023-06-22T09:36:35;10.23;;;5.97;;
73632;SDS011;61927;50.080;14.418;2023-06-22T09:39:02;9.32;;;5.80;;
73632;SDS011;61927;50.080;14.418;2023-06-22T09:41:31;10.50;;;7.60;;
73632;SDS011;61927;50.080;14.418;2023-06-22T09:43:57;13.27;;;6.03;;
73632;SDS011;61927;50.080;14.418;2023-06-22T09:46:22;14.13;;;5.57;;
73632;SDS011;61927;50.080;14.418;2023-06-22T09:48:53;21.83;;;6.78;;
73632;SDS011;61927;50.080;14.418;2023-06-22T09:51:19;16.88;;;6.55;;
73632;SDS011;61927;50.080;14.418;2023-06-22T09:53:47;15.75;;;6.28;;
73632;SDS011;61927;50.080;14.418;2023-06-22T09:56:13;13.57;;;5.55;;
73632;SDS011;61927;50.080;14.418;2023-06-22T09:58:42;14.10;;;5.60;;
73632;SDS011;61927;50.080;14.418;2023-06-22T10:01:08;9.77;;;6.50;;
73632;SDS011;61927;50.080;14.418;2023-06-22T10:03:36;27.42;;;6.03;;
73632;SDS011;61927;50.080;14.418;2023-06-22T10:06:02;8.23;;;5.78;;
73632;SDS011;61927;50.080;14.418;2023-06-22T10:08:29;8.38;;;5.68;;
73632;SDS011;61927;50.080;14.418;2023-06-22T10:10:54;10.80;;;6.00;;
73632;SDS011;61927;50.080;14.418;2023-06-22T10:13:20;13.80;;;5.88;;
73632;SDS011;61927;50.080;14.418;2023-06-22T10:15:46;16.65;;;5.57;;
73632;SDS011;61927;50.080;14.418;2023-06-22T10:18:16;10.02;;;7.20;;
73632;SDS011;61927;50.080;14.418;2023-06-22T10:20:42;14.73;;;8.48;;
73632;SDS011;61927;50.080;14.418;2023-06-22T10:23:08;11.23;;;6.55;;
73632;SDS011;61927;50.080;14.418;2023-06-22T10:25:34;8.25;;;5.40;;
73632;SDS011;61927;50.080;14.418;2023-06-22T10:27:59;14.55;;;5.55;;
73632;SDS011;61927;50.080;14.418;2023-06-22T10:30:25;13.02;;;6.45;;
73632;SDS011;61927;50.080;14.418;2023-06-22T10:32:51;14.20;;;5.32;;
73632;SDS011;61927;50.080;14.418;2023-06-22T10:35:17;12.80;;;5.93;;
73632;SDS011;61927;50.080;14.418;2023-06-22T10:37:45;7.40;;;5.22;;
73632;SDS011;61927;50.080;14.418;2023-06-22T10:40:13;15.00;;;5.57;;
73632;SDS011;61927;50.080;14.418;2023-06-22T10:42:40;11.40;;;5.03;;
73632;SDS011;61927;50.080;14.418;2023-06-22T10:45:06;12.93;;;5.10;;
73632;SDS011;61927;50.080;14.418;2023-06-22T10:47:33;16.45;;;5.80;;
73632;SDS011;61927;50.080;14.418;2023-06-22T10:49:59;13.60;;;5.40;;
73632;SDS011;61927;50.080;14.418;2023-06-22T10:52:25;12.77;;;5.07;;
73632;SDS011;61927;50.080;14.418;2023-06-22T10:54:51;12.98;;;5.25;;
73632;SDS011;61927;50.080;14.418;2023-06-22T10:57:17;8.63;;;5.70;;
73632;SDS011;61927;50.080;14.418;2023-06-22T10:59:43;9.85;;;6.78;;
73632;SDS011;61927;50.080;14.418;2023-06-22T11:02:10;14.07;;;6.85;;
73632;SDS011;61927;50.080;14.418;2023-06-22T11:04:36;13.15;;;6.25;;
73632;SDS011;61927;50.080;14.418;2023-06-22T11:07:02;8.77;;;5.88;;
73632;SDS011;61927;50.080;14.418;2023-06-22T11:09:28;12.88;;;5.65;;
73632;SDS011;61927;50.080;14.418;2023-06-22T11:11:55;18.48;;;5.78;;
73632;SDS011;61927;50.080;14.418;2023-06-22T11:14:22;9.80;;;5.68;;
73632;SDS011;61927;50.080;14.418;2023-06-22T11:16:48;19.00;;;6.45;;
73632;SDS011;61927;50.080;14.418;2023-06-22T11:19:13;10.80;;;6.05;;
73632;SDS011;61927;50.080;14.418;2023-06-22T11:21:39;17.60;;;5.75;;
73632;SDS011;61927;50.080;14.418;2023-06-22T11:24:05;9.65;;;5.45;;
73632;SDS011;61927;50.080;14.418;2023-06-22T11:26:31;15.55;;;5.90;;
73632;SDS011;61927;50.080;14.418;2023-06-22T11:28:58;10.75;;;6.13;;
73632;SDS011;61927;50.080;14.418;2023-06-22T11:31:26;18.85;;;6.03;;
73632;SDS011;61927;50.080;14.418;2023-06-22T11:33:52;13.88;;;5.65;;
73632;SDS011;61927;50.080;14.418;2023-06-22T11:36:18;9.55;;;5.25;;
73632;SDS011;61927;50.080;14.418;2023-06-22T11:38:45;9.85;;;5.07;;
73632;SDS011;61927;50.080;14.418;2023-06-22T11:41:10;9.23;;;5.47;;
73632;SDS011;61927;50.080;14.418;2023-06-22T11:43:36;10.80;;;5.22;;
73632;SDS011;61927;50.080;14.418;2023-06-22T11:46:02;12.00;;;5.22;;
73632;SDS011;61927;50.080;14.418;2023-06-22T11:48:29;16.58;;;5.43;;
73632;SDS011;61927;50.080;14.418;2023-06-22T11:50:55;11.55;;;5.20;;
73632;SDS011;61927;50.080;14.418;2023-06-22T11:53:23;7.25;;;5.38;;
73632;SDS011;61927;50.080;14.418;2023-06-22T11:55:50;12.70;;;5.70;;
73632;SDS011;61927;50.080;14.418;2023-06-22T11:58:16;15.13;;;5.78;;
73632;SDS011;61927;50.080;14.418;2023-06-22T12:00:41;14.43;;;6.35;;
73632;SDS011;61927;50.080;14.418;2023-06-22T12:03:07;12.68;;;5.40;;
73632;SDS011;61927;50.080;14.418;2023-06-22T12:05:34;8.57;;;5.25;;
73632;SDS011;61927;50.080;14.418;2023-06-22T12:08:00;15.05;;;5.38;;
73632;SDS011;61927;50.080;14.418;2023-06-22T12:10:26;18.77;;;5.65;;
73632;SDS011;61927;50.080;14.418;2023-06-22T12:12:54;14.27;;;5.80;;
73632;SDS011;61927;50.080;14.418;2023-06-22T12:15:19;7.18;;;4.57;;
73632;SDS011;61927;50.080;14.418;2023-06-22T12:17:45;10.77;;;5.03;;
73632;SDS011;61927;50.080;14.418;2023-06-22T12:20:13;7.80;;;5.10;;
73632;SDS011;61927;50.080;14.418;2023-06-22T12:22:40;11.05;;;5.72;;
73632;SDS011;61927;50.080;14.418;2023-06-22T12:25:07;11.45;;;5.38;;
73632;SDS011;61927;50.080;14.418;2023-06-22T12:27:34;16.33;;;6.10;;
73632;SDS011;61927;50.080;14.418;2023-06-22T12:30:02;9.20;;;5.65;;
73632;SDS011;61927;50.080;14.418;2023-06-22T12:32:29;9.30;;;6.20;;
73632;SDS011;61927;50.080;14.418;2023-06-22T12:34:55;18.25;;;5.50;;
73632;SDS011;61927;50.080;14.418;2023-06-22T12:37:21;17.08;;;5.22;;
73632;SDS011;61927;50.080;14.418;2023-06-22T12:39:47;21.85;;;5.90;;
73632;SDS011;61927;50.080;14.418;2023-06-22T12:42:14;18.65;;;5.40;;
73632;SDS011;61927;50.080;14.418;2023-06-22T12:44:40;26.08;;;5.32;;
73632;SDS011;61927;50.080;14.418;2023-06-22T12:47:06;27.85;;;5.80;;
73632;SDS011;61927;50.080;14.418;2023-06-22T12:49:34;22.25;;;8.10;;
73632;SDS011;61927;50.080;14.418;2023-06-22T12:52:00;19.45;;;5.00;;
73632;SDS011;61927;50.080;14.418;2023-06-22T12:54:26;20.42;;;4.80;;
73632;SDS011;61927;50.080;14.418;2023-06-22T12:56:53;21.35;;;4.60;;
73632;SDS011;61927;50.080;14.418;2023-06-22T12:59:19;23.23;;;5.22;;
73632;SDS011;61927;50.080;14.418;2023-06-22T13:01:44;26.73;;;4.90;;
73632;SDS011;61927;50.080;14.418;2023-06-22T13:04:11;28.98;;;7.50;;
73632;SDS011;61927;50.080;14.418;2023-06-22T13:06:42;15.27;;;4.68;;
73632;SDS011;61927;50.080;14.418;2023-06-22T13:09:09;18.70;;;5.55;;
73632;SDS011;61927;50.080;14.418;2023-06-22T13:11:35;9.15;;;4.95;;
73632;SDS011;61927;50.080;14.418;2023-06-22T13:14:01;21.98;;;5.00;;
73632;SDS011;61927;50.080;14.418;2023-06-22T13:16:27;9.35;;;4.88;;
73632;SDS011;61927;50.080;14.418;2023-06-22T13:18:52;35.15;;;5.65;;
73632;SDS011;61927;50.080;14.418;2023-06-22T13:21:18;23.80;;;5.20;;
73632;SDS011;61927;50.080;14.418;2023-06-22T13:23:43;20.48;;;4.97;;
73632;SDS011;61927;50.080;14.418;2023-06-22T13:26:09;18.08;;;5.05;;
73632;SDS011;61927;50.080;14.418;2023-06-22T13:28:35;20.42;;;5.47;;
73632;SDS011;61927;50.080;14.418;2023-06-22T13:31:00;11.77;;;5.93;;
73632;SDS011;61927;50.080;14.418;2023-06-22T13:33:26;25.13;;;5.75;;
73632;SDS011;61927;50.080;14.418;2023-06-22T13:35:52;18.52;;;5.07;;
73632;SDS011;61927;50.080;14.418;2023-06-22T13:38:17;36.53;;;6.28;;
73632;SDS011;61927;50.080;14.418;2023-06-22T13:40:43;15.50;;;5.22;;
73632;SDS011;61927;50.080;14.418;2023-06-22T13:43:09;28.23;;;5.38;;
73632;SDS011;61927;50.080;14.418;2023-06-22T13:45:35;23.75;;;5.20;;
73632;SDS011;61927;50.080;14.418;2023-06-22T13:48:03;21.90;;;5.30;;
73632;SDS011;61927;50.080;14.418;2023-06-22T13:50:29;15.40;;;6.28;;
73632;SDS011;61927;50.080;14.418;2023-06-22T13:52:55;58.47;;;6.38;;
73632;SDS011;61927;50.080;14.418;2023-06-22T13:55:21;29.02;;;5.93;;
73632;SDS011;61927;50.080;14.418;2023-06-22T13:57:48;16.10;;;5.00;;
73632;SDS011;61927;50.080;14.418;2023-06-22T14:00:15;15.45;;;4.53;;
73632;SDS011;61927;50.080;14.418;2023-06-22T14:02:41;30.13;;;5.32;;
73632;SDS011;61927;50.080;14.418;2023-06-22T14:05:07;21.17;;;6.03;;
73632;SDS011;61927;50.080;14.418;2023-06-22T14:07:33;19.35;;;5.30;;
73632;SDS011;61927;50.080;14.418;2023-06-22T14:09:59;12.93;;;5.55;;
73632;SDS011;61927;50.080;14.418;2023-06-22T14:12:26;80.88;;;7.85;;
73632;SDS011;61927;50.080;14.418;2023-06-22T14:14:52;20.08;;;5.38;;
73632;SDS011;61927;50.080;14.418;2023-06-22T14:17:20;12.00;;;5.00;;
73632;SDS011;61927;50.080;14.418;2023-06-22T14:19:49;90.13;;;8.98;;
73632;SDS011;61927;50.080;14.418;2023-06-22T14:22:20;42.05;;;6.20;;
73632;SDS011;61927;50.080;14.418;2023-06-22T14:24:47;18.52;;;6.32;;
73632;SDS011;61927;50.080;14.418;2023-06-22T14:27:14;75.88;;;8.77;;
73632;SDS011;61927;50.080;14.418;2023-06-22T14:29:40;41.97;;;8.10;;
73632;SDS011;61927;50.080;14.418;2023-06-22T14:32:06;25.20;;;5.75;;
73632;SDS011;61927;50.080;14.418;2023-06-22T14:34:33;18.45;;;6.70;;